TimeCDT,TemperatureF,Dew PointF,Humidity,Sea Level PressureIn,VisibilityMPH,Wind Direction,Wind SpeedMPH,Gust SpeedMPH,PrecipitationIn,Events,Conditions,WindDirDegrees,DateUTC
12:53 AM,39.0,23.0,53,30.01,10.0,West,8.1,-,N/A,,Clear,280,2012-10-06 05:53:00
1:53 AM,37.9,23.0,55,30.01,10.0,West,8.1,-,N/A,,Clear,280,2012-10-06 06:53:00
2:53 AM,37.0,24.1,59,30.01,10.0,West,8.1,-,N/A,,Mostly Cloudy,280,2012-10-06 07:53:00
3:53 AM,37.9,26.1,62,30.01,10.0,WNW,10.4,-,N/A,,Mostly Cloudy,290,2012-10-06 08:53:00
4:53 AM,39.9,26.1,58,30.02,10.0,WNW,11.5,-,N/A,,Overcast,290,2012-10-06 09:53:00
5:53 AM,39.9,27.0,60,30.04,10.0,WNW,10.4,-,N/A,,Overcast,300,2012-10-06 10:53:00
6:53 AM,39.9,27.0,60,30.06,10.0,WNW,12.7,-,N/A,,Overcast,290,2012-10-06 11:53:00
7:53 AM,39.9,28.0,63,30.07,10.0,NW,9.2,-,N/A,,Overcast,320,2012-10-06 12:53:00
8:53 AM,42.1,28.0,58,30.09,10.0,NNW,11.5,-,N/A,,Overcast,330,2012-10-06 13:53:00
9:32 AM,41.0,28.4,61,30.08,10.0,NW,13.8,18.4,N/A,,Overcast,320,2012-10-06 14:32:00
9:53 AM,41.0,28.0,60,30.11,10.0,NW,11.5,20.7,N/A,,Overcast,310,2012-10-06 14:53:00
10:53 AM,44.1,27.0,51,30.12,10.0,NNW,11.5,18.4,N/A,,Scattered Clouds,330,2012-10-06 15:53:00
11:53 AM,46.0,27.0,47,30.13,10.0,WNW,13.8,17.3,N/A,,Mostly Cloudy,300,2012-10-06 16:53:00
12:53 PM,45.0,26.1,48,30.14,10.0,NNW,10.4,19.6,N/A,,Mostly Cloudy,330,2012-10-06 17:53:00
1:53 PM,46.0,25.0,44,30.14,10.0,WNW,13.8,-,N/A,,Overcast,300,2012-10-06 18:53:00
2:53 PM,46.0,25.0,44,30.13,10.0,NW,10.4,-,N/A,,Mostly Cloudy,310,2012-10-06 19:53:00
3:53 PM,46.0,24.1,42,30.13,10.0,NW,13.8,18.4,N/A,,Overcast,310,2012-10-06 20:53:00
4:53 PM,46.0,24.1,42,30.13,10.0,NW,9.2,-,N/A,,Overcast,310,2012-10-06 21:53:00
5:53 PM,44.1,26.1,49,30.15,10.0,NW,10.4,-,N/A,,Overcast,310,2012-10-06 22:53:00
6:53 PM,44.1,24.1,45,30.17,10.0,WNW,6.9,-,N/A,,Overcast,300,2012-10-06 23:53:00
7:53 PM,43.0,21.9,43,30.18,10.0,NNW,5.8,-,N/A,,Overcast,330,2012-10-07 00:53:00
8:53 PM,42.1,23.0,47,30.18,10.0,NW,6.9,-,N/A,,Overcast,320,2012-10-07 01:53:00
9:53 PM,43.0,23.0,45,30.19,10.0,NNW,8.1,-,N/A,,Overcast,330,2012-10-07 02:53:00
10:53 PM,42.1,23.0,47,30.19,10.0,NNW,11.5,-,N/A,,Overcast,340,2012-10-07 03:53:00